createdAt,value
2022-11-05T00:00:17.026Z,7.63
2022-11-05T00:03:23.541Z,6.43
2022-11-05T00:06:44.322Z,6.72
2022-11-05T00:09:33.563Z,6.45
2022-11-05T00:12:39.611Z,6.10
2022-11-05T00:15:46.765Z,7.30
2022-11-05T00:18:35.071Z,6.30
2022-11-05T00:21:40.901Z,7.25
2022-11-05T00:24:46.739Z,6.30
2022-11-05T00:27:35.576Z,7.00
2022-11-05T00:30:26.647Z,6.38
2022-11-05T00:36:06.704Z,6.45
2022-11-05T00:38:55.004Z,5.45
2022-11-05T00:41:43.344Z,5.90
2022-11-05T00:44:49.015Z,6.00
2022-11-05T00:47:54.703Z,6.05
2022-11-05T00:50:44.453Z,5.97
2022-11-05T00:53:33.220Z,5.28
2022-11-05T00:56:21.606Z,5.03
2022-11-05T00:59:09.913Z,4.75
2022-11-05T01:01:58.391Z,5.63
2022-11-05T01:04:46.869Z,5.30
2022-11-05T01:07:36.578Z,5.22
2022-11-05T01:10:25.686Z,4.93
2022-11-05T01:13:15.603Z,4.90
2022-11-05T01:16:07.305Z,6.07
2022-11-05T01:18:55.652Z,5.47
2022-11-05T01:21:43.986Z,5.65
2022-11-05T01:24:33.678Z,5.80
2022-11-05T01:27:22.010Z,5.53
2022-11-05T01:30:11.482Z,5.60
2022-11-05T01:33:00.015Z,5.35
2022-11-05T01:35:51.695Z,5.75
2022-11-05T01:38:40.029Z,4.95
2022-11-05T01:41:29.719Z,5.63
2022-11-05T01:45:03.871Z,5.28
2022-11-05T01:48:02.257Z,5.35
2022-11-05T01:50:56.256Z,5.70
2022-11-05T01:53:48.066Z,5.80
2022-11-05T01:56:42.058Z,6.32
2022-11-05T01:59:32.473Z,7.00
2022-11-05T02:02:20.923Z,6.63
2022-11-05T02:05:10.744Z,6.72
2022-11-05T02:07:59.199Z,7.10
2022-11-05T02:10:48.541Z,6.70
2022-11-05T02:13:38.417Z,7.10
2022-11-05T02:16:37.747Z,6.82
2022-11-05T02:20:07.424Z,7.50
2022-11-05T02:23:20.412Z,7.78
2022-11-05T02:26:38.709Z,7.72
2022-11-05T02:30:13.258Z,8.88
2022-11-05T02:33:18.905Z,7.82
2022-11-05T02:36:25.375Z,7.93
2022-11-05T02:39:26.179Z,8.88
2022-11-05T02:42:21.420Z,8.63
2022-11-05T02:45:19.543Z,8.48
2022-11-05T02:48:15.237Z,8.55
2022-11-05T02:51:10.105Z,8.68
2022-11-05T02:54:04.411Z,7.85
2022-11-05T02:56:56.181Z,7.80
2022-11-05T02:59:44.516Z,9.48
2022-11-05T03:02:33.474Z,8.77
2022-11-05T03:05:27.950Z,8.85
2022-11-05T03:08:24.590Z,9.05
2022-11-05T03:11:15.667Z,9.30
2022-11-05T03:17:01.190Z,8.73
2022-11-05T03:19:54.777Z,8.70
2022-11-05T03:22:48.563Z,9.55
2022-11-05T03:25:40.829Z,8.48
2022-11-05T03:28:34.083Z,8.65
2022-11-05T03:31:25.697Z,9.32
2022-11-05T03:34:15.969Z,8.55
2022-11-05T03:37:05.748Z,8.77
2022-11-05T03:39:59.491Z,8.38
2022-11-05T03:42:53.078Z,8.85
2022-11-05T03:45:46.290Z,8.70
2022-11-05T03:48:39.483Z,8.77
2022-11-05T03:51:37.556Z,8.40
2022-11-05T03:54:26.172Z,8.48
2022-11-05T03:57:20.323Z,8.18
2022-11-05T04:00:10.636Z,8.82
2022-11-05T04:02:59.049Z,8.38
2022-11-05T04:06:08.370Z,8.65
2022-11-05T04:09:14.281Z,8.65
2022-11-05T04:12:20.188Z,9.48
2022-11-05T04:15:10.756Z,8.77
2022-11-05T04:17:59.105Z,7.63
2022-11-05T04:21:04.867Z,9.18
2022-11-05T04:24:11.672Z,9.60
2022-11-05T04:27:00.024Z,7.80
2022-11-05T04:30:05.898Z,8.63
2022-11-05T04:33:03.690Z,8.25
2022-11-05T04:35:51.986Z,9.27
2022-11-05T04:38:40.289Z,8.23
2022-11-05T04:41:28.592Z,8.80
2022-11-05T04:44:17.682Z,8.43
2022-11-05T04:47:06.054Z,8.27
2022-11-05T04:49:55.759Z,8.48
2022-11-05T04:52:44.267Z,8.88
2022-11-05T04:55:32.591Z,7.72
2022-11-05T04:58:21.020Z,7.25
2022-11-05T05:01:13.501Z,8.18
2022-11-05T05:04:01.850Z,7.65
2022-11-05T05:06:51.476Z,8.18
2022-11-05T05:09:39.783Z,7.40
2022-11-05T05:12:28.253Z,7.80
2022-11-05T05:15:16.712Z,7.80
2022-11-05T05:18:05.271Z,7.60
2022-11-05T05:21:11.024Z,7.63
2022-11-05T05:24:00.726Z,7.07
2022-11-05T05:26:50.741Z,5.93
2022-11-05T05:29:39.043Z,7.10
2022-11-05T05:32:27.943Z,6.60
2022-11-05T05:35:16.374Z,6.68
2022-11-05T05:38:04.693Z,6.97
2022-11-05T05:40:59.268Z,6.47
2022-11-05T05:43:47.816Z,6.97
2022-11-05T05:46:36.149Z,7.40
2022-11-05T05:49:24.475Z,6.88
2022-11-05T05:52:12.783Z,6.75
2022-11-05T05:55:01.105Z,7.07
2022-11-05T05:57:50.796Z,6.75
2022-11-05T06:00:39.221Z,7.28
2022-11-05T06:03:27.527Z,7.95
2022-11-05T06:06:19.656Z,7.60
2022-11-05T06:09:08.389Z,7.93
2022-11-05T06:11:56.785Z,7.82
2022-11-05T06:14:46.464Z,7.18
2022-11-05T06:17:35.110Z,7.22
2022-11-05T06:20:23.487Z,8.13
2022-11-05T06:23:12.823Z,7.35
2022-11-05T06:26:02.423Z,7.25
2022-11-05T06:28:50.699Z,8.13
2022-11-05T06:31:40.354Z,8.07
2022-11-05T06:34:28.689Z,7.88
2022-11-05T06:37:17.046Z,7.20
2022-11-05T06:40:06.368Z,7.05
2022-11-05T06:42:54.755Z,7.25
2022-11-05T06:45:43.105Z,7.40
2022-11-05T06:48:33.095Z,6.50
2022-11-05T06:51:21.628Z,7.20
2022-11-05T06:54:09.988Z,6.90
2022-11-05T06:56:58.317Z,7.13
2022-11-05T06:59:46.621Z,6.60
2022-11-05T07:02:34.951Z,6.60
2022-11-05T07:05:25.067Z,6.80
2022-11-05T07:08:13.489Z,6.22
2022-11-05T07:11:02.052Z,6.78
2022-11-05T07:13:50.392Z,7.03
2022-11-05T07:16:38.774Z,6.32
2022-11-05T07:19:27.124Z,5.97
2022-11-05T07:22:16.847Z,5.93
2022-11-05T07:25:05.796Z,6.97
2022-11-05T07:27:54.741Z,7.07
2022-11-05T07:30:43.247Z,7.97
2022-11-05T07:33:36.273Z,6.90
2022-11-05T07:36:25.092Z,8.02
2022-11-05T07:39:14.793Z,6.03
2022-11-05T07:42:03.128Z,6.32
2022-11-05T07:44:51.414Z,6.70
2022-11-05T07:48:03.357Z,6.80
2022-11-05T07:50:53.061Z,6.05
2022-11-05T07:53:45.242Z,6.43
2022-11-05T07:56:35.337Z,6.38
2022-11-05T07:59:23.751Z,7.00
2022-11-05T08:02:12.888Z,7.25
2022-11-05T08:05:01.252Z,6.57
2022-11-05T08:07:49.681Z,6.53
2022-11-05T08:10:38.593Z,6.00
2022-11-05T08:13:28.276Z,6.03
2022-11-05T08:16:17.424Z,6.20
2022-11-05T08:19:05.766Z,6.18
2022-11-05T08:21:54.099Z,6.15
2022-11-05T08:24:42.428Z,5.68
2022-11-05T08:27:30.774Z,5.90
2022-11-05T08:30:20.602Z,4.90
2022-11-05T08:33:11.817Z,5.30
2022-11-05T08:36:03.760Z,5.07
2022-11-05T08:38:52.988Z,5.53
2022-11-05T08:41:41.516Z,5.05
2022-11-05T08:44:30.342Z,5.10
2022-11-05T08:47:19.975Z,5.28
2022-11-05T08:50:09.081Z,5.10
2022-11-05T08:52:57.545Z,4.72
2022-11-05T08:55:47.752Z,5.47
2022-11-05T08:58:36.160Z,4.72
2022-11-05T09:01:24.625Z,3.83
2022-11-05T09:04:14.350Z,4.00
2022-11-05T09:07:02.656Z,4.30
2022-11-05T09:09:50.952Z,3.72
2022-11-05T09:12:39.557Z,4.30
2022-11-05T09:15:28.178Z,3.60
2022-11-05T09:18:18.809Z,3.38
2022-11-05T09:21:08.495Z,3.20
2022-11-05T09:23:56.820Z,3.40
2022-11-05T09:26:45.174Z,3.03
2022-11-05T09:29:33.699Z,3.17
2022-11-05T09:32:23.234Z,3.00
2022-11-05T09:35:11.762Z,4.13
2022-11-05T09:38:01.573Z,3.08
2022-11-05T09:40:56.853Z,3.65
2022-11-05T09:43:49.388Z,3.00
2022-11-05T09:46:43.926Z,2.50
2022-11-05T09:49:38.472Z,2.50
2022-11-05T09:52:30.406Z,2.47
2022-11-05T09:55:24.669Z,2.42
2022-11-05T09:58:18.542Z,3.35
2022-11-05T10:01:13.348Z,2.50
2022-11-05T10:04:06.981Z,2.30
2022-11-05T10:06:58.376Z,1.85
2022-11-05T10:09:50.169Z,2.97
2022-11-05T10:12:45.983Z,1.77
2022-11-05T10:15:39.095Z,2.58
2022-11-05T10:18:32.388Z,2.03
2022-11-05T10:21:44.341Z,2.53
2022-11-05T10:24:30.410Z,2.13
2022-11-05T10:27:23.554Z,1.75
2022-11-05T10:30:15.560Z,2.05
2022-11-05T10:33:07.613Z,2.00
2022-11-05T10:36:00.338Z,1.73
2022-11-05T10:38:48.756Z,1.63
2022-11-05T10:42:03.351Z,1.75
2022-11-05T10:44:57.769Z,1.77
2022-11-05T10:48:03.819Z,1.90
2022-11-05T10:50:52.185Z,2.08
2022-11-05T10:53:46.684Z,1.63
2022-11-05T10:56:37.630Z,1.65
2022-11-05T10:59:27.992Z,2.17
2022-11-05T11:02:21.936Z,2.60
2022-11-05T11:05:19.997Z,1.27
2022-11-05T11:08:24.809Z,1.60
2022-11-05T11:11:28.367Z,2.20
2022-11-05T11:14:22.477Z,1.00
2022-11-05T11:17:26.709Z,1.92
2022-11-05T11:20:24.512Z,1.70
2022-11-05T11:23:15.580Z,1.65
2022-11-05T11:26:05.556Z,1.70
2022-11-05T11:28:58.989Z,2.38
2022-11-05T11:31:47.565Z,1.60
2022-11-05T11:34:40.588Z,1.65
2022-11-05T11:37:34.552Z,1.98
2022-11-05T11:40:25.561Z,1.55
2022-11-05T11:46:09.925Z,1.75
2022-11-05T11:49:03.466Z,1.40
2022-11-05T11:52:00.811Z,1.40
2022-11-05T11:54:51.910Z,1.75
2022-11-05T12:00:37.581Z,2.70
2022-11-05T12:03:32.974Z,1.60
2022-11-05T12:06:28.460Z,1.67
2022-11-05T12:09:23.995Z,1.42
2022-11-05T12:12:15.502Z,2.42
2022-11-05T12:15:22.634Z,1.50
2022-11-05T12:18:19.573Z,1.40
2022-11-05T12:21:15.383Z,1.55
2022-11-05T12:24:24.234Z,1.90
2022-11-05T12:27:27.697Z,2.25
2022-11-05T12:30:18.571Z,2.17
2022-11-05T12:33:26.228Z,1.70
2022-11-05T12:36:23.408Z,1.92
2022-11-05T12:39:27.482Z,1.35
2022-11-05T12:42:30.665Z,1.40
2022-11-05T12:45:30.484Z,1.58
2022-11-05T12:48:46.215Z,1.40
2022-11-05T12:51:46.864Z,1.50
2022-11-05T12:54:49.257Z,1.60
2022-11-05T12:57:42.115Z,1.70
2022-11-05T13:00:31.547Z,1.83
2022-11-05T13:03:26.771Z,1.73
2022-11-05T13:06:18.085Z,2.47
2022-11-05T13:09:13.359Z,1.90
2022-11-05T13:12:06.153Z,1.60
2022-11-05T13:14:59.844Z,1.67
2022-11-05T13:17:53.893Z,1.63
2022-11-05T13:20:47.423Z,2.45
2022-11-05T13:23:41.761Z,2.25
2022-11-05T13:26:36.453Z,1.98
2022-11-05T13:29:32.620Z,2.00
2022-11-05T13:32:29.366Z,2.00
2022-11-05T13:35:25.183Z,2.40
2022-11-05T13:38:42.836Z,1.85
2022-11-05T13:41:44.948Z,1.98
2022-11-05T13:44:56.945Z,2.42
2022-11-05T13:48:19.952Z,1.85
2022-11-05T13:51:40.357Z,1.90
2022-11-05T13:55:05.325Z,2.28
2022-11-05T13:58:22.716Z,2.20
2022-11-05T14:01:20.971Z,2.15
2022-11-05T14:04:17.799Z,1.88
2022-11-05T14:07:09.740Z,1.67
2022-11-05T14:10:06.437Z,2.50
2022-11-05T14:12:57.928Z,2.30
2022-11-05T14:16:03.261Z,2.30
2022-11-05T14:18:56.252Z,2.17
2022-11-05T14:21:50.693Z,2.42
2022-11-05T14:24:44.266Z,2.60
2022-11-05T14:27:46.793Z,1.60
2022-11-05T14:30:44.319Z,1.77
2022-11-05T14:33:38.796Z,1.85
2022-11-05T14:36:34.872Z,1.60
2022-11-05T14:39:28.591Z,2.03
2022-11-05T14:42:20.346Z,1.88
2022-11-05T14:45:27.065Z,1.67
2022-11-05T14:48:31.717Z,1.73
2022-11-05T14:51:27.748Z,1.95
2022-11-05T14:54:22.746Z,2.15
2022-11-05T14:57:15.610Z,1.73
2022-11-05T15:00:06.513Z,1.75
2022-11-05T15:02:58.359Z,1.45
2022-11-05T15:05:52.340Z,2.05
2022-11-05T15:08:56.890Z,2.63
2022-11-05T15:11:57.999Z,2.35
2022-11-05T15:17:48.041Z,2.22
2022-11-05T15:20:40.717Z,2.67
2022-11-05T15:23:37.819Z,2.30
2022-11-05T15:26:31.238Z,1.98
2022-11-05T15:29:22.336Z,2.58
2022-11-05T15:35:24.736Z,3.85
2022-11-05T15:38:34.108Z,2.50
2022-11-05T15:41:25.942Z,2.90
2022-11-05T15:44:26.009Z,3.33
2022-11-05T15:47:24.702Z,3.65
2022-11-05T15:50:15.143Z,4.10
2022-11-05T15:53:37.504Z,4.45
2022-11-05T15:56:29.467Z,5.10
2022-11-05T15:59:20.603Z,5.32
2022-11-05T16:05:13.945Z,7.18
2022-11-05T16:08:04.357Z,6.30
2022-11-05T16:10:54.666Z,5.82
2022-11-05T16:13:43.356Z,5.32
2022-11-05T16:16:35.280Z,14.35
2022-11-05T16:19:40.323Z,10.98
2022-11-05T16:22:48.755Z,7.30
2022-11-05T16:25:39.438Z,7.30
2022-11-05T16:28:30.260Z,8.25
2022-11-05T16:31:24.623Z,7.93
2022-11-05T16:34:28.674Z,8.82
2022-11-05T16:37:19.962Z,8.65
2022-11-05T16:40:14.970Z,9.20
2022-11-05T16:43:17.668Z,8.18
2022-11-05T16:46:06.288Z,8.80
2022-11-05T16:48:54.593Z,6.25
2022-11-05T16:51:43.504Z,5.72
2022-11-05T16:54:31.784Z,5.20
2022-11-05T16:57:26.271Z,5.28
2022-11-05T17:00:17.253Z,6.40
2022-11-05T17:03:05.724Z,6.53
2022-11-05T17:05:54.067Z,6.70
2022-11-05T17:08:44.369Z,6.38
2022-11-05T17:11:32.992Z,6.97
2022-11-05T17:14:22.707Z,7.20
2022-11-05T17:17:12.618Z,7.75
2022-11-05T17:20:00.917Z,10.93
2022-11-05T17:22:58.180Z,12.98
2022-11-05T17:25:49.272Z,12.70
2022-11-05T17:28:38.754Z,13.15
2022-11-05T17:31:28.480Z,9.63
2022-11-05T17:34:17.068Z,9.65
2022-11-05T17:37:05.347Z,10.80
2022-11-05T17:39:53.696Z,11.73
2022-11-05T17:42:42.467Z,10.55
2022-11-05T17:45:31.015Z,10.38
2022-11-05T17:48:21.811Z,10.35
2022-11-05T17:51:10.771Z,10.40
2022-11-05T17:53:59.107Z,13.30
2022-11-05T17:56:47.582Z,8.52
2022-11-05T17:59:36.037Z,8.38
2022-11-05T18:02:24.588Z,9.45
2022-11-05T18:05:14.519Z,9.82
2022-11-05T18:08:03.257Z,10.25
2022-11-05T18:10:54.674Z,11.35
2022-11-05T18:13:43.139Z,13.00
2022-11-05T18:16:31.660Z,12.90
2022-11-05T18:19:20.004Z,9.95
2022-11-05T18:22:09.742Z,9.10
2022-11-05T18:24:58.050Z,8.23
2022-11-05T18:27:46.567Z,8.38
2022-11-05T18:30:35.099Z,8.90
2022-11-05T18:33:23.501Z,9.32
2022-11-05T18:36:18.756Z,8.82
2022-11-05T18:39:08.788Z,8.77
2022-11-05T18:41:57.149Z,8.50
2022-11-05T18:44:45.514Z,15.52
2022-11-05T18:47:34.323Z,11.48
2022-11-05T18:50:23.100Z,12.30
2022-11-05T18:53:11.626Z,11.60
2022-11-05T18:56:01.380Z,11.98
2022-11-05T18:58:49.955Z,10.70
2022-11-05T19:01:38.975Z,10.63
2022-11-05T19:04:28.615Z,11.82
2022-11-05T19:07:16.936Z,12.13
2022-11-05T19:10:06.452Z,11.50
2022-11-05T19:12:56.217Z,10.95
2022-11-05T19:15:45.042Z,10.65
2022-11-05T19:18:33.359Z,7.47
2022-11-05T19:21:23.642Z,6.80
2022-11-05T19:24:16.833Z,6.18
2022-11-05T19:27:05.619Z,5.50
2022-11-05T19:29:55.377Z,5.70
2022-11-05T19:32:43.724Z,5.90
2022-11-05T19:35:35.658Z,6.32
2022-11-05T19:38:27.173Z,6.75
2022-11-05T19:41:18.279Z,6.70
2022-11-05T19:46:56.541Z,7.07
2022-11-05T19:49:45.195Z,5.50
2022-11-05T19:52:33.662Z,5.45
2022-11-05T19:55:22.071Z,5.75
2022-11-05T19:58:10.704Z,6.03
2022-11-05T20:00:59.464Z,5.28
2022-11-05T20:03:49.540Z,5.78
2022-11-05T20:06:40.154Z,5.37
2022-11-05T20:09:28.557Z,6.65
2022-11-05T20:12:16.852Z,6.00
2022-11-05T20:15:06.057Z,6.22
2022-11-05T20:17:55.093Z,6.18
2022-11-05T20:20:45.330Z,6.10
2022-11-05T20:23:35.959Z,5.40
2022-11-05T20:26:24.545Z,5.53
2022-11-05T20:29:13.009Z,4.90
2022-11-05T20:32:02.163Z,5.15
2022-11-05T20:34:50.509Z,5.78
2022-11-05T20:37:40.155Z,5.65
2022-11-05T20:40:28.540Z,6.70
2022-11-05T20:43:17.012Z,5.80
2022-11-05T20:46:05.946Z,5.68
2022-11-05T20:48:55.728Z,5.38
2022-11-05T20:51:44.051Z,5.47
2022-11-05T20:54:33.799Z,5.47
2022-11-05T20:57:22.404Z,5.10
2022-11-05T21:00:11.871Z,6.13
2022-11-05T21:03:00.375Z,7.03
2022-11-05T21:05:49.545Z,6.85
2022-11-05T21:08:38.118Z,6.38
2022-11-05T21:11:27.934Z,5.50
2022-11-05T21:14:16.409Z,5.13
2022-11-05T21:17:05.288Z,5.20
2022-11-05T21:19:53.647Z,5.63
2022-11-05T21:22:43.367Z,5.57
2022-11-05T21:25:31.763Z,5.57
2022-11-05T21:28:21.453Z,5.53
2022-11-05T21:31:10.855Z,6.18
2022-11-05T21:33:59.323Z,6.28
2022-11-05T21:36:48.039Z,7.28
2022-11-05T21:39:36.370Z,7.70
2022-11-05T21:42:24.878Z,8.00
2022-11-05T21:45:14.666Z,8.52
2022-11-05T21:48:03.247Z,8.25
2022-11-05T21:51:10.462Z,8.35
2022-11-05T21:54:16.455Z,8.27
2022-11-05T21:57:21.658Z,7.45
2022-11-05T22:00:12.382Z,6.82
2022-11-05T22:03:02.206Z,7.22
2022-11-05T22:05:50.679Z,7.30
2022-11-05T22:08:38.991Z,7.25
2022-11-05T22:11:27.315Z,7.40
2022-11-05T22:14:15.889Z,6.35
2022-11-05T22:17:05.223Z,6.70
2022-11-05T22:19:55.126Z,6.35
2022-11-05T22:22:43.739Z,6.78
2022-11-05T22:25:32.110Z,6.38
2022-11-05T22:28:21.162Z,6.38
2022-11-05T22:31:13.663Z,6.35
2022-11-05T22:34:02.009Z,6.40
2022-11-05T22:36:52.252Z,6.40
2022-11-05T22:39:40.605Z,5.03
2022-11-05T22:42:28.977Z,6.25
2022-11-05T22:45:17.497Z,6.45
2022-11-05T22:48:06.973Z,6.60
2022-11-05T22:50:55.580Z,6.40
2022-11-05T22:53:45.468Z,6.00
2022-11-05T22:56:37.396Z,6.75
2022-11-05T22:59:25.707Z,6.07
2022-11-05T23:02:14.188Z,6.30
2022-11-05T23:05:02.581Z,6.20
2022-11-05T23:08:08.580Z,6.57
2022-11-05T23:11:16.319Z,7.28
2022-11-05T23:14:04.657Z,7.25
2022-11-05T23:17:10.219Z,6.18
2022-11-05T23:20:24.383Z,6.40
2022-11-05T23:23:31.430Z,6.03
2022-11-05T23:26:38.402Z,6.40
2022-11-05T23:29:28.090Z,6.45
2022-11-05T23:32:25.474Z,6.20
2022-11-05T23:35:14.275Z,6.43
2022-11-05T23:38:20.456Z,6.88
2022-11-05T23:41:26.920Z,5.88
2022-11-05T23:44:34.437Z,5.80
2022-11-05T23:47:40.101Z,5.25
2022-11-05T23:50:28.879Z,5.75
2022-11-05T23:53:17.500Z,5.20
2022-11-05T23:56:08.096Z,4.85
2022-11-05T23:58:56.364Z,5.82
